Time;durP1;ratioP1;P1;durP2;ratioP2;P2;SDS_P1;SDS_P2;PMS_P1;PMS_P2;Temp;Humidity;BMP_temperature;BMP_pressure;BME280_temperature;BME280_humidity;BME280_pressure;Samples;Min_cycle;Max_cycle;Signal;HPM_P1;HPM_P2
2021/03/07 00:01:17;;;;;;;0.17;0.17;;;;;;;;;;5021358;28;20199;-62
2021/03/07 00:03:46;;;;;;;0.00;0.00;;;;;;;;;;5029188;28;20560;-61
2021/03/07 00:06:14;;;;;;;0.10;0.10;;;;;;;;;;5025204;28;20191;-61
2021/03/07 00:08:43;;;;;;;0.00;0.00;;;;;;;;;;5022439;28;20198;-61
2021/03/07 00:11:09;;;;;;;0.30;0.30;;;;;;;;;;5019727;28;20184;-62
2021/03/07 00:13:36;;;;;;;0.00;0.00;;;;;;;;;;5021224;28;20209;-62
2021/03/07 00:16:04;;;;;;;0.00;0.00;;;;;;;;;;5020975;28;20558;-61
2021/03/07 00:18:33;;;;;;;0.00;0.00;;;;;;;;;;5022995;28;20208;-61
2021/03/07 00:20:59;;;;;;;0.00;0.00;;;;;;;;;;5019046;28;20200;-62
2021/03/07 00:23:28;;;;;;;0.00;0.00;;;;;;;;;;5024202;28;20176;-63
2021/03/07 00:25:56;;;;;;;0.00;0.00;;;;;;;;;;5024571;28;20651;-61
2021/03/07 00:28:25;;;;;;;0.03;0.03;;;;;;;;;;5026906;28;20805;-63
2021/03/07 00:30:52;;;;;;;0.00;0.00;;;;;;;;;;5022209;28;20683;-61
2021/03/07 00:33:20;;;;;;;0.00;0.00;;;;;;;;;;5021431;28;20267;-62
2021/03/07 00:35:48;;;;;;;1.20;0.87;;;;;;;;;;5025437;28;20193;-62
2021/03/07 00:38:15;;;;;;;0.10;0.10;;;;;;;;;;5024625;28;20231;-62
2021/03/07 00:40:42;;;;;;;0.00;0.00;;;;;;;;;;5027058;28;20183;-63
2021/03/07 00:43:10;;;;;;;0.00;0.00;;;;;;;;;;5021004;28;20233;-62
2021/03/07 00:45:37;;;;;;;0.00;0.00;;;;;;;;;;5021228;28;20577;-62
2021/03/07 00:48:08;;;;;;;6.77;6.53;;;;;;;;;;5018493;28;20282;-61
2021/03/07 00:50:35;;;;;;;0.00;0.00;;;;;;;;;;5021066;28;20346;-62
2021/03/07 00:53:01;;;;;;;0.00;0.00;;;;;;;;;;5016236;28;20238;-62
2021/03/07 00:55:28;;;;;;;0.00;0.00;;;;;;;;;;5020748;28;20646;-62
2021/03/07 00:57:55;;;;;;;1.80;0.73;;;;;;;;;;5018906;28;20661;-61
2021/03/07 01:00:25;;;;;;;0.33;0.33;;;;;;;;;;5020837;28;20638;-62
2021/03/07 01:02:53;;;;;;;3.10;3.00;;;;;;;;;;5020567;28;20203;-62
2021/03/07 01:05:21;;;;;;;0.00;0.00;;;;;;;;;;5017956;28;20184;-62
2021/03/07 01:07:48;;;;;;;0.00;0.00;;;;;;;;;;5026151;28;20230;-62
2021/03/07 01:10:17;;;;;;;0.00;0.00;;;;;;;;;;5020220;28;20622;-62
2021/03/07 01:12:45;;;;;;;0.00;0.00;;;;;;;;;;5022279;28;20654;-62
2021/03/07 01:15:13;;;;;;;1.23;1.13;;;;;;;;;;5022427;28;20298;-61
2021/03/07 01:17:40;;;;;;;0.00;0.00;;;;;;;;;;5022952;28;20218;-62
2021/03/07 01:20:12;;;;;;;0.37;0.10;;;;;;;;;;5039553;28;20186;-62
2021/03/07 01:22:38;;;;;;;0.00;0.00;;;;;;;;;;5018777;28;20187;-61
2021/03/07 01:25:06;;;;;;;0.00;0.00;;;;;;;;;;5027084;28;20184;-62
2021/03/07 01:27:34;;;;;;;0.20;0.10;;;;;;;;;;5026760;28;20991;-62
2021/03/07 01:30:01;;;;;;;1.17;0.40;;;;;;;;;;5025838;28;20235;-62
2021/03/07 01:32:28;;;;;;;0.07;0.07;;;;;;;;;;5026742;28;20246;-62
2021/03/07 01:34:56;;;;;;;5.57;0.57;;;;;;;;;;5025951;28;20191;-62
2021/03/07 01:37:24;;;;;;;1.10;0.50;;;;;;;;;;5024112;28;20791;-62
2021/03/07 01:39:51;;;;;;;0.00;0.00;;;;;;;;;;5028200;28;20200;-62
2021/03/07 01:42:21;;;;;;;0.83;0.83;;;;;;;;;;5023825;28;20183;-62
2021/03/07 01:44:48;;;;;;;0.00;0.00;;;;;;;;;;5029897;28;20344;-62
2021/03/07 01:47:18;;;;;;;0.00;0.00;;;;;;;;;;5016528;28;20187;-62
2021/03/07 01:49:51;;;;;;;3.10;0.57;;;;;;;;;;5023991;28;20788;-62
2021/03/07 01:52:18;;;;;;;0.00;0.00;;;;;;;;;;5027416;28;20273;-61
2021/03/07 01:54:44;;;;;;;0.00;0.00;;;;;;;;;;5040600;28;20196;-62
2021/03/07 01:57:12;;;;;;;0.10;0.10;;;;;;;;;;5020963;28;20668;-62
2021/03/07 01:59:39;;;;;;;0.00;0.00;;;;;;;;;;5021274;28;20334;-62
2021/03/07 02:02:07;;;;;;;0.00;0.00;;;;;;;;;;5023651;28;20692;-62
2021/03/07 02:04:34;;;;;;;0.10;0.10;;;;;;;;;;5024881;28;20188;-62
2021/03/07 02:07:01;;;;;;;0.40;0.40;;;;;;;;;;5026765;28;20192;-62
2021/03/07 02:09:28;;;;;;;0.37;0.37;;;;;;;;;;5016831;28;20198;-63
2021/03/07 02:11:55;;;;;;;1.90;0.40;;;;;;;;;;5018744;28;20212;-62
2021/03/07 02:14:23;;;;;;;0.00;0.00;;;;;;;;;;5017190;28;20194;-62
2021/03/07 02:16:49;;;;;;;0.00;0.00;;;;;;;;;;5016226;28;20650;-62
2021/03/07 02:19:18;;;;;;;0.40;0.40;;;;;;;;;;5019096;28;20188;-62
2021/03/07 02:21:48;;;;;;;0.50;0.40;;;;;;;;;;5018889;28;20776;-62
2021/03/07 02:24:16;;;;;;;0.00;0.00;;;;;;;;;;5012645;28;20172;-62
2021/03/07 02:26:46;;;;;;;0.10;0.10;;;;;;;;;;5016001;28;20221;-62
2021/03/07 02:29:13;;;;;;;0.00;0.00;;;;;;;;;;5016225;28;20176;-63
2021/03/07 02:31:43;;;;;;;0.00;0.00;;;;;;;;;;5015404;28;20196;-63
2021/03/07 02:34:13;;;;;;;0.83;0.20;;;;;;;;;;5032700;28;21902;-62
2021/03/07 02:36:44;;;;;;;0.00;0.00;;;;;;;;;;5017592;28;20302;-63
2021/03/07 02:39:11;;;;;;;0.00;0.00;;;;;;;;;;5019189;28;20192;-62
2021/03/07 02:41:39;;;;;;;0.00;0.00;;;;;;;;;;5018806;28;20180;-62
2021/03/07 02:44:09;;;;;;;0.03;0.03;;;;;;;;;;5015532;28;20195;-62
2021/03/07 02:46:36;;;;;;;0.00;0.00;;;;;;;;;;5019445;28;20183;-63
2021/03/07 02:49:04;;;;;;;0.00;0.00;;;;;;;;;;5018849;28;20185;-62
2021/03/07 02:51:32;;;;;;;0.00;0.00;;;;;;;;;;5019278;28;20192;-62
2021/03/07 02:54:00;;;;;;;0.10;0.10;;;;;;;;;;5020168;28;20187;-62
2021/03/07 02:56:32;;;;;;;0.30;0.30;;;;;;;;;;5021661;28;20844;-62
2021/03/07 02:59:01;;;;;;;0.10;0.10;;;;;;;;;;5020767;28;20291;-62
2021/03/07 03:01:28;;;;;;;0.57;0.30;;;;;;;;;;5022525;28;20233;-62
2021/03/07 03:03:56;;;;;;;4.17;0.50;;;;;;;;;;5021450;28;20172;-62
2021/03/07 03:06:23;;;;;;;0.17;0.17;;;;;;;;;;5021119;28;20195;-62
2021/03/07 03:08:53;;;;;;;0.10;0.10;;;;;;;;;;5016753;28;20192;-61
2021/03/07 03:11:21;;;;;;;0.30;0.30;;;;;;;;;;5023844;28;20178;-62
2021/03/07 03:13:49;;;;;;;0.30;0.30;;;;;;;;;;5018693;28;20603;-62
2021/03/07 03:16:16;;;;;;;0.93;0.60;;;;;;;;;;5015361;28;20889;-62
2021/03/07 03:18:43;;;;;;;0.23;0.23;;;;;;;;;;5023559;28;20183;-61
2021/03/07 03:21:11;;;;;;;0.67;0.60;;;;;;;;;;5022665;28;20226;-62
2021/03/07 03:23:39;;;;;;;0.00;0.00;;;;;;;;;;5024443;28;20890;-62
2021/03/07 03:26:11;;;;;;;0.10;0.10;;;;;;;;;;5021148;28;20696;-62
2021/03/07 03:28:40;;;;;;;0.07;0.07;;;;;;;;;;5022696;28;20183;-62
2021/03/07 03:31:08;;;;;;;0.00;0.00;;;;;;;;;;5020743;28;20333;-62
2021/03/07 03:33:34;;;;;;;0.10;0.10;;;;;;;;;;5022263;28;20172;-61
2021/03/07 03:36:02;;;;;;;0.10;0.10;;;;;;;;;;5019372;28;20586;-61
2021/03/07 03:38:37;;;;;;;0.00;0.00;;;;;;;;;;5023933;28;20219;-62
2021/03/07 03:41:04;;;;;;;13.90;1.43;;;;;;;;;;5023604;28;20710;-62
2021/03/07 03:43:31;;;;;;;0.10;0.10;;;;;;;;;;5012210;28;21110;-62
2021/03/07 03:46:04;;;;;;;0.10;0.10;;;;;;;;;;5019851;28;20221;-62
2021/03/07 03:48:33;;;;;;;1.20;0.50;;;;;;;;;;5023036;28;20243;-62
2021/03/07 03:51:00;;;;;;;0.00;0.00;;;;;;;;;;5027043;28;20228;-63
2021/03/07 03:53:28;;;;;;;0.00;0.00;;;;;;;;;;5014527;28;20203;-65
2021/03/07 03:55:55;;;;;;;0.00;0.00;;;;;;;;;;5020119;28;20190;-63
2021/03/07 03:58:24;;;;;;;3.90;0.67;;;;;;;;;;5017481;28;20171;-63
2021/03/07 04:00:52;;;;;;;2.17;0.93;;;;;;;;;;5024507;28;20186;-62
2021/03/07 04:03:19;;;;;;;0.10;0.10;;;;;;;;;;5022396;28;20788;-62
2021/03/07 04:05:48;;;;;;;0.10;0.10;;;;;;;;;;5020253;28;20190;-62
2021/03/07 04:08:16;;;;;;;0.10;0.10;;;;;;;;;;5021481;28;20203;-64
2021/03/07 04:10:45;;;;;;;0.00;0.00;;;;;;;;;;5024409;28;20174;-62
2021/03/07 04:13:15;;;;;;;0.50;0.33;;;;;;;;;;5014864;28;20184;-62
2021/03/07 04:15:42;;;;;;;0.00;0.00;;;;;;;;;;5020406;28;20645;-62
2021/03/07 04:18:14;;;;;;;0.03;0.03;;;;;;;;;;5018947;28;20231;-62
2021/03/07 04:20:41;;;;;;;0.10;0.10;;;;;;;;;;5022923;28;20180;-62
2021/03/07 04:23:07;;;;;;;1.93;0.37;;;;;;;;;;5020346;28;20278;-62
2021/03/07 04:25:35;;;;;;;0.00;0.00;;;;;;;;;;5029084;28;20195;-62
2021/03/07 04:28:04;;;;;;;0.00;0.00;;;;;;;;;;5044898;28;20206;-62
2021/03/07 04:30:32;;;;;;;0.00;0.00;;;;;;;;;;5019522;28;20200;-62
2021/03/07 04:32:59;;;;;;;0.00;0.00;;;;;;;;;;5034790;28;20188;-61
2021/03/07 04:35:25;;;;;;;0.00;0.00;;;;;;;;;;5018930;28;20183;-62
2021/03/07 04:37:52;;;;;;;0.10;0.10;;;;;;;;;;5015232;28;20768;-62
2021/03/07 04:40:20;;;;;;;0.00;0.00;;;;;;;;;;5025049;28;20424;-62
2021/03/07 04:42:48;;;;;;;0.00;0.00;;;;;;;;;;5021801;28;20176;-62
2021/03/07 04:45:14;;;;;;;0.10;0.10;;;;;;;;;;5019779;28;20184;-62
2021/03/07 04:47:45;;;;;;;0.20;0.20;;;;;;;;;;5020923;28;20191;-62
2021/03/07 04:50:14;;;;;;;0.00;0.00;;;;;;;;;;5018649;28;20290;-62
2021/03/07 04:52:41;;;;;;;0.07;0.07;;;;;;;;;;5018449;28;20204;-62
2021/03/07 04:55:08;;;;;;;0.10;0.10;;;;;;;;;;5020188;28;20180;-62
2021/03/07 04:57:35;;;;;;;0.07;0.07;;;;;;;;;;5022001;28;20204;-61
2021/03/07 05:00:04;;;;;;;1.20;1.10;;;;;;;;;;5019881;28;20175;-62
2021/03/07 05:02:33;;;;;;;0.00;0.00;;;;;;;;;;5020462;28;20182;-61
2021/03/07 05:05:00;;;;;;;0.00;0.00;;;;;;;;;;5015929;28;20752;-62
2021/03/07 05:07:27;;;;;;;0.30;0.10;;;;;;;;;;5017727;28;20176;-61
2021/03/07 05:09:55;;;;;;;1.70;0.67;;;;;;;;;;5016100;28;21046;-62
2021/03/07 05:12:23;;;;;;;0.00;0.00;;;;;;;;;;5016628;28;20199;-61
2021/03/07 05:14:50;;;;;;;0.10;0.10;;;;;;;;;;5014818;28;20187;-62
2021/03/07 05:17:17;;;;;;;0.00;0.00;;;;;;;;;;5014093;28;20676;-63
2021/03/07 05:19:43;;;;;;;1.03;1.03;;;;;;;;;;5014632;28;20180;-62
2021/03/07 05:22:12;;;;;;;1.43;1.17;;;;;;;;;;5015965;28;20191;-62
2021/03/07 05:24:39;;;;;;;1.43;0.60;;;;;;;;;;5020107;28;20180;-62
2021/03/07 05:27:09;;;;;;;0.00;0.00;;;;;;;;;;5014411;28;20269;-62
2021/03/07 05:29:36;;;;;;;0.00;0.00;;;;;;;;;;5016782;28;20185;-62
2021/03/07 05:32:04;;;;;;;0.00;0.00;;;;;;;;;;5012759;28;20326;-62
2021/03/07 05:34:31;;;;;;;0.10;0.10;;;;;;;;;;5017846;28;20187;-62
2021/03/07 05:36:57;;;;;;;0.70;0.07;;;;;;;;;;5012453;28;20210;-62
2021/03/07 05:39:25;;;;;;;0.00;0.00;;;;;;;;;;5014098;28;20203;-62
2021/03/07 05:41:53;;;;;;;0.00;0.00;;;;;;;;;;5023555;28;20226;-62
2021/03/07 05:44:23;;;;;;;0.10;0.10;;;;;;;;;;5012704;28;20176;-62
2021/03/07 05:46:52;;;;;;;5.53;4.60;;;;;;;;;;5020727;28;20183;-62
2021/03/07 05:49:18;;;;;;;0.00;0.00;;;;;;;;;;5015492;28;20175;-62
2021/03/07 05:51:45;;;;;;;2.57;2.47;;;;;;;;;;5017817;28;20320;-62
2021/03/07 05:54:17;;;;;;;0.00;0.00;;;;;;;;;;5025764;28;20723;-63
2021/03/07 05:56:48;;;;;;;0.00;0.00;;;;;;;;;;5025486;28;20206;-62
2021/03/07 05:59:15;;;;;;;1.53;0.87;;;;;;;;;;5017925;28;20185;-62
2021/03/07 06:01:46;;;;;;;0.00;0.00;;;;;;;;;;5020048;28;20708;-62
2021/03/07 06:04:12;;;;;;;0.77;0.57;;;;;;;;;;5019350;28;20187;-62
2021/03/07 06:06:43;;;;;;;0.60;0.27;;;;;;;;;;5019436;28;20180;-62
2021/03/07 06:09:21;;;;;;;0.00;0.00;;;;;;;;;;5022872;28;20184;-62
2021/03/07 06:11:48;;;;;;;0.17;0.17;;;;;;;;;;5016723;28;20190;-62
2021/03/07 06:14:36;;;;;;;0.10;0.10;;;;;;;;;;5014091;28;20184;-62
2021/03/07 06:17:09;;;;;;;0.63;0.57;;;;;;;;;;5017646;28;20265;-62
2021/03/07 06:19:56;;;;;;;0.00;0.00;;;;;;;;;;5020051;28;20189;-63
2021/03/07 06:22:25;;;;;;;0.10;0.10;;;;;;;;;;5023593;28;20665;-62
2021/03/07 06:24:54;;;;;;;0.00;0.00;;;;;;;;;;5017775;28;20209;-62
2021/03/07 06:27:22;;;;;;;0.00;0.00;;;;;;;;;;5023730;28;20183;-62
2021/03/07 06:29:58;;;;;;;0.10;0.10;;;;;;;;;;5018957;28;20195;-62
2021/03/07 06:32:26;;;;;;;0.00;0.00;;;;;;;;;;5016754;28;20610;-63
2021/03/07 06:34:53;;;;;;;0.00;0.00;;;;;;;;;;5023408;28;20192;-62
2021/03/07 06:37:20;;;;;;;0.10;0.10;;;;;;;;;;5023814;28;20220;-62
2021/03/07 06:39:47;;;;;;;0.10;0.10;;;;;;;;;;5021200;28;20196;-62
2021/03/07 06:42:14;;;;;;;0.17;0.17;;;;;;;;;;5018384;28;20706;-62
2021/03/07 06:44:51;;;;;;;0.00;0.00;;;;;;;;;;5019485;28;20191;-62
2021/03/07 06:47:18;;;;;;;0.47;0.47;;;;;;;;;;5020480;28;20962;-62
2021/03/07 06:49:45;;;;;;;0.50;0.50;;;;;;;;;;5017760;28;20648;-62
2021/03/07 06:52:15;;;;;;;0.00;0.00;;;;;;;;;;5018494;28;20559;-62
2021/03/07 13:37:11;;;;;;;2.87;1.40;;;;;;;;;;5058557;27;20599;-58
2021/03/07 13:39:38;;;;;;;0.50;0.50;;;;;;;;;;5047844;28;20320;-57
2021/03/07 13:42:05;;;;;;;4.10;0.67;;;;;;;;;;5049720;28;20182;-57
2021/03/07 13:44:32;;;;;;;1.00;1.00;;;;;;;;;;5048326;28;20970;-58
2021/03/07 13:46:59;;;;;;;4.47;1.00;;;;;;;;;;5046722;28;20198;-57
2021/03/07 13:49:25;;;;;;;0.00;0.00;;;;;;;;;;5050362;28;20295;-58
2021/03/07 13:51:52;;;;;;;0.00;0.00;;;;;;;;;;5048521;28;20179;-57
2021/03/07 13:54:20;;;;;;;0.30;0.30;;;;;;;;;;5053159;28;20177;-58
2021/03/07 13:56:47;;;;;;;0.00;0.00;;;;;;;;;;5042133;28;20221;-58
2021/03/07 13:59:14;;;;;;;3.20;0.90;;;;;;;;;;5045646;28;20286;-57
2021/03/07 14:01:40;;;;;;;5.40;3.13;;;;;;;;;;5045744;28;20175;-58
2021/03/07 14:04:07;;;;;;;1.50;0.50;;;;;;;;;;5052491;28;20215;-58
2021/03/07 14:06:34;;;;;;;1.20;0.43;;;;;;;;;;5047253;28;20261;-57
2021/03/07 14:09:01;;;;;;;1.30;0.60;;;;;;;;;;5046866;28;20957;-58
2021/03/07 14:11:27;;;;;;;0.70;0.20;;;;;;;;;;5047362;28;20225;-58
2021/03/07 14:13:54;;;;;;;12.33;5.43;;;;;;;;;;5049408;28;20258;-58
2021/03/07 14:16:20;;;;;;;2.20;0.70;;;;;;;;;;5053318;28;20643;-58
2021/03/07 14:18:48;;;;;;;3.90;1.67;;;;;;;;;;5049160;28;20175;-58
2021/03/07 14:21:14;;;;;;;3.17;0.87;;;;;;;;;;5049769;28;20204;-58
2021/03/07 14:23:41;;;;;;;3.17;0.67;;;;;;;;;;5048627;28;20168;-58
2021/03/07 14:26:08;;;;;;;0.27;0.20;;;;;;;;;;5050897;28;20257;-58
2021/03/07 14:28:34;;;;;;;1.00;0.70;;;;;;;;;;5046992;28;20179;-58
2021/03/07 14:31:01;;;;;;;3.43;0.83;;;;;;;;;;5046560;28;20185;-58
2021/03/07 14:33:28;;;;;;;0.93;0.40;;;;;;;;;;5049237;28;20900;-58
2021/03/07 14:35:55;;;;;;;0.40;0.33;;;;;;;;;;5046408;28;20334;-58
2021/03/07 14:38:21;;;;;;;0.93;0.40;;;;;;;;;;5041881;28;20211;-58
2021/03/07 14:40:48;;;;;;;0.10;0.10;;;;;;;;;;5043777;28;20203;-58
2021/03/07 14:43:14;;;;;;;3.50;0.53;;;;;;;;;;5047604;28;20718;-58
2021/03/07 14:45:41;;;;;;;0.10;0.10;;;;;;;;;;5041916;28;20174;-58
2021/03/07 14:48:08;;;;;;;2.73;0.83;;;;;;;;;;5032145;28;21249;-58
2021/03/07 14:50:34;;;;;;;0.20;0.20;;;;;;;;;;5028770;28;20188;-58
2021/03/07 14:53:01;;;;;;;6.83;1.87;;;;;;;;;;5030316;28;20191;-57
2021/03/07 14:55:27;;;;;;;1.53;0.60;;;;;;;;;;5031257;28;20205;-57
2021/03/07 14:57:54;;;;;;;0.93;0.67;;;;;;;;;;5031124;28;20179;-57
2021/03/07 15:00:22;;;;;;;3.00;0.57;;;;;;;;;;5028411;28;20180;-58
2021/03/07 15:02:48;;;;;;;2.33;1.77;;;;;;;;;;5030129;28;20244;-57
2021/03/07 15:05:15;;;;;;;3.13;0.43;;;;;;;;;;5027545;28;20172;-57
2021/03/07 15:07:43;;;;;;;3.03;0.67;;;;;;;;;;5030265;28;20637;-58
2021/03/07 15:10:11;;;;;;;7.90;0.20;;;;;;;;;;5029953;28;20166;-57
2021/03/07 15:12:38;;;;;;;1.83;1.53;;;;;;;;;;5032563;28;20177;-57
2021/03/07 15:15:05;;;;;;;0.60;0.60;;;;;;;;;;5033249;28;20209;-57
2021/03/07 15:17:31;;;;;;;2.53;0.60;;;;;;;;;;5036207;28;20260;-58
2021/03/07 15:19:58;;;;;;;2.47;1.43;;;;;;;;;;5038008;28;20176;-58
2021/03/07 15:22:26;;;;;;;2.40;2.30;;;;;;;;;;5033065;28;20201;-57
2021/03/07 15:24:52;;;;;;;0.40;0.40;;;;;;;;;;5036363;28;20179;-57
2021/03/07 15:27:19;;;;;;;1.27;0.33;;;;;;;;;;5032521;28;20177;-58
2021/03/07 15:29:46;;;;;;;1.63;0.80;;;;;;;;;;5035739;28;20188;-57
2021/03/07 15:32:12;;;;;;;1.70;0.60;;;;;;;;;;5034700;28;20171;-58
2021/03/07 15:34:39;;;;;;;0.00;0.00;;;;;;;;;;5033441;28;20267;-59
2021/03/07 15:37:06;;;;;;;0.00;0.00;;;;;;;;;;5034026;28;20395;-58
2021/03/07 15:39:33;;;;;;;0.20;0.20;;;;;;;;;;5034393;28;20184;-58
2021/03/07 15:42:00;;;;;;;0.50;0.50;;;;;;;;;;5037083;28;20666;-57
2021/03/07 15:44:27;;;;;;;0.20;0.20;;;;;;;;;;5034022;28;20260;-58
2021/03/07 15:46:53;;;;;;;1.27;0.47;;;;;;;;;;5024600;28;20184;-58
2021/03/07 15:49:20;;;;;;;1.70;0.23;;;;;;;;;;5038554;28;20189;-58
2021/03/07 15:51:46;;;;;;;1.80;1.20;;;;;;;;;;5036688;28;20515;-60
2021/03/07 15:54:14;;;;;;;3.20;0.67;;;;;;;;;;5030333;28;20182;-56
2021/03/07 15:56:40;;;;;;;1.43;0.63;;;;;;;;;;5029632;28;20298;-58
2021/03/07 15:59:07;;;;;;;3.37;3.07;;;;;;;;;;5035572;28;20182;-57
2021/03/07 16:01:34;;;;;;;0.20;0.20;;;;;;;;;;5034659;28;20176;-57
2021/03/07 16:04:00;;;;;;;3.47;0.57;;;;;;;;;;5032828;28;20310;-58
2021/03/07 16:06:27;;;;;;;0.83;0.50;;;;;;;;;;5035677;28;20237;-58
2021/03/07 16:08:53;;;;;;;2.03;0.77;;;;;;;;;;5030297;28;20187;-57
2021/03/07 16:11:20;;;;;;;0.10;0.10;;;;;;;;;;5033326;28;20184;-57
2021/03/07 16:13:46;;;;;;;2.67;1.47;;;;;;;;;;5037105;28;20187;-58
2021/03/07 16:16:13;;;;;;;1.07;0.60;;;;;;;;;;5029438;28;20238;-58
2021/03/07 16:18:41;;;;;;;0.00;0.00;;;;;;;;;;5034842;28;20173;-57
2021/03/07 16:21:08;;;;;;;0.43;0.10;;;;;;;;;;5034317;28;20293;-57
2021/03/07 16:23:36;;;;;;;3.37;0.97;;;;;;;;;;5031199;28;20822;-58
2021/03/07 16:26:03;;;;;;;0.87;0.40;;;;;;;;;;5033927;28;20261;-57
2021/03/07 16:28:30;;;;;;;2.57;0.50;;;;;;;;;;5035850;28;20184;-58
2021/03/07 16:30:57;;;;;;;3.97;0.93;;;;;;;;;;5026895;28;20234;-58
2021/03/07 16:33:23;;;;;;;3.33;0.60;;;;;;;;;;5028679;28;20178;-58
2021/03/07 16:35:50;;;;;;;1.10;1.00;;;;;;;;;;5031813;28;20236;-57
2021/03/07 16:38:16;;;;;;;0.33;0.33;;;;;;;;;;5022770;28;20180;-57
2021/03/07 16:40:43;;;;;;;0.93;0.87;;;;;;;;;;5033107;28;20181;-58
2021/03/07 16:43:09;;;;;;;3.33;0.30;;;;;;;;;;5027487;28;20249;-58
2021/03/07 16:45:36;;;;;;;0.53;0.37;;;;;;;;;;5030694;28;20210;-57
2021/03/07 16:48:05;;;;;;;3.10;1.17;;;;;;;;;;5031918;28;20182;-57
2021/03/07 16:50:32;;;;;;;0.63;0.63;;;;;;;;;;5041763;28;20190;-58
2021/03/07 16:52:59;;;;;;;0.50;0.30;;;;;;;;;;5033340;28;20257;-57
2021/03/07 16:55:25;;;;;;;4.00;0.73;;;;;;;;;;5031065;28;20228;-58
2021/03/07 16:57:52;;;;;;;6.90;0.80;;;;;;;;;;5031366;28;20233;-57
2021/03/07 17:00:19;;;;;;;4.23;0.10;;;;;;;;;;5031594;28;20180;-59
2021/03/07 17:02:45;;;;;;;0.10;0.10;;;;;;;;;;5033109;28;20699;-57
2021/03/07 17:05:12;;;;;;;1.97;0.43;;;;;;;;;;5028348;28;20182;-58
2021/03/07 17:07:39;;;;;;;0.97;0.63;;;;;;;;;;5037704;28;20192;-57
2021/03/07 17:10:06;;;;;;;3.83;0.67;;;;;;;;;;5029059;28;20179;-58
2021/03/07 17:12:32;;;;;;;3.53;1.10;;;;;;;;;;5033398;28;20197;-59
2021/03/07 17:14:59;;;;;;;0.43;0.43;;;;;;;;;;5034362;28;20238;-58
2021/03/07 17:17:26;;;;;;;1.03;0.10;;;;;;;;;;5034309;28;20176;-58
2021/03/07 17:19:53;;;;;;;3.63;0.53;;;;;;;;;;5033506;28;20621;-58
2021/03/07 17:22:20;;;;;;;0.67;0.40;;;;;;;;;;5028143;28;20838;-58
2021/03/07 17:24:46;;;;;;;0.00;0.00;;;;;;;;;;5032725;28;20167;-58
2021/03/07 17:27:13;;;;;;;1.90;0.93;;;;;;;;;;5031199;28;20191;-58
2021/03/07 17:29:40;;;;;;;4.90;0.40;;;;;;;;;;5035648;28;20178;-57
2021/03/07 17:32:06;;;;;;;0.00;0.00;;;;;;;;;;5033632;28;20776;-59
2021/03/07 17:34:33;;;;;;;5.63;0.67;;;;;;;;;;5036100;28;20206;-57
2021/03/07 17:37:00;;;;;;;0.40;0.20;;;;;;;;;;5022690;28;21126;-57
2021/03/07 17:39:29;;;;;;;2.13;1.13;;;;;;;;;;5021305;28;20184;-58
2021/03/07 17:41:57;;;;;;;0.13;0.00;;;;;;;;;;5020322;28;20509;-58
2021/03/07 17:44:24;;;;;;;0.60;0.40;;;;;;;;;;5023813;28;20191;-58
2021/03/07 17:46:51;;;;;;;4.90;1.63;;;;;;;;;;5024298;28;20213;-57
2021/03/07 17:49:18;;;;;;;1.80;0.70;;;;;;;;;;5029799;28;20257;-58
2021/03/07 17:51:44;;;;;;;9.97;3.17;;;;;;;;;;5023934;28;20185;-59
2021/03/07 17:54:11;;;;;;;7.43;1.33;;;;;;;;;;5013704;28;20212;-59
2021/03/07 17:56:39;;;;;;;4.03;1.00;;;;;;;;;;5024790;28;20292;-58
2021/03/07 17:59:05;;;;;;;1.13;0.60;;;;;;;;;;5030038;28;20196;-58
2021/03/07 18:01:32;;;;;;;4.07;1.40;;;;;;;;;;5019837;28;20184;-58
2021/03/07 18:03:58;;;;;;;1.87;0.57;;;;;;;;;;5020225;28;20177;-58
2021/03/07 18:06:25;;;;;;;1.10;0.20;;;;;;;;;;5030108;28;20218;-57
2021/03/07 18:08:51;;;;;;;1.30;0.53;;;;;;;;;;5029648;28;20183;-58
2021/03/07 18:11:18;;;;;;;0.03;0.03;;;;;;;;;;5038691;28;20178;-58
2021/03/07 18:13:45;;;;;;;0.40;0.17;;;;;;;;;;5033764;28;20276;-58
2021/03/07 18:16:12;;;;;;;0.43;0.40;;;;;;;;;;5036963;28;20303;-58
2021/03/07 18:18:38;;;;;;;0.30;0.30;;;;;;;;;;5020123;28;20174;-59
2021/03/07 18:21:05;;;;;;;2.73;0.50;;;;;;;;;;5019774;28;20200;-58
2021/03/07 18:23:31;;;;;;;0.90;0.60;;;;;;;;;;5034272;28;20178;-59
2021/03/07 18:25:58;;;;;;;1.33;1.20;;;;;;;;;;5030451;28;20189;-58
2021/03/07 18:28:25;;;;;;;2.23;0.67;;;;;;;;;;5035440;28;20238;-58
2021/03/07 18:30:52;;;;;;;0.30;0.20;;;;;;;;;;5025001;28;20195;-59
2021/03/07 18:33:18;;;;;;;3.40;1.20;;;;;;;;;;5030832;28;20187;-59
2021/03/07 18:35:45;;;;;;;0.00;0.00;;;;;;;;;;5034586;28;20228;-59
2021/03/07 18:38:12;;;;;;;0.87;0.20;;;;;;;;;;5023453;28;20187;-59
2021/03/07 18:40:39;;;;;;;2.30;0.20;;;;;;;;;;5027141;28;20210;-59
2021/03/07 18:43:06;;;;;;;10.43;3.40;;;;;;;;;;5028876;28;20194;-59
2021/03/07 18:45:33;;;;;;;0.43;0.17;;;;;;;;;;5030193;28;20184;-59
2021/03/07 18:47:59;;;;;;;0.00;0.00;;;;;;;;;;5019739;28;20254;-59
2021/03/07 18:50:26;;;;;;;0.53;0.40;;;;;;;;;;5025857;28;20202;-59
2021/03/07 18:52:53;;;;;;;1.50;0.13;;;;;;;;;;5035128;28;20207;-59
2021/03/07 18:55:19;;;;;;;0.40;0.40;;;;;;;;;;5027453;28;20253;-59
2021/03/07 18:57:47;;;;;;;2.33;0.23;;;;;;;;;;5025963;28;20308;-58
2021/03/07 19:00:14;;;;;;;0.00;0.00;;;;;;;;;;5023660;28;20807;-58
2021/03/07 19:02:41;;;;;;;2.00;0.30;;;;;;;;;;5022998;28;20180;-59
2021/03/07 19:05:08;;;;;;;1.97;0.73;;;;;;;;;;5033485;28;20267;-59
2021/03/07 19:07:35;;;;;;;0.43;0.30;;;;;;;;;;5033175;28;20195;-59
2021/03/07 19:10:01;;;;;;;0.00;0.00;;;;;;;;;;5034397;28;20187;-59
2021/03/07 19:12:28;;;;;;;0.00;0.00;;;;;;;;;;5027019;28;20184;-58
2021/03/07 19:14:55;;;;;;;0.13;0.13;;;;;;;;;;5030255;28;20674;-59
2021/03/07 19:17:21;;;;;;;0.00;0.00;;;;;;;;;;5025645;28;20825;-59
2021/03/07 19:19:48;;;;;;;0.00;0.00;;;;;;;;;;5027372;28;20180;-59
2021/03/07 19:22:14;;;;;;;0.03;0.03;;;;;;;;;;5025782;28;20579;-59
2021/03/07 19:24:41;;;;;;;0.13;0.13;;;;;;;;;;5025725;28;20792;-59
2021/03/07 19:27:08;;;;;;;0.07;0.07;;;;;;;;;;5023317;28;20188;-58
2021/03/07 19:29:34;;;;;;;1.60;0.40;;;;;;;;;;5024047;28;20678;-59
2021/03/07 19:32:04;;;;;;;8.03;0.73;;;;;;;;;;5028715;28;20751;-58
2021/03/07 19:34:31;;;;;;;0.70;0.23;;;;;;;;;;5030048;28;20261;-59
2021/03/07 19:36:58;;;;;;;1.43;1.10;;;;;;;;;;5029627;28;20329;-59
2021/03/07 19:39:25;;;;;;;0.53;0.30;;;;;;;;;;5034340;28;21014;-59
2021/03/07 19:41:52;;;;;;;1.70;1.13;;;;;;;;;;5034462;28;20187;-58
2021/03/07 19:44:19;;;;;;;12.53;2.47;;;;;;;;;;5032077;28;20234;-58
2021/03/07 19:46:45;;;;;;;0.40;0.30;;;;;;;;;;5031688;28;20185;-59
2021/03/07 19:49:12;;;;;;;1.80;0.13;;;;;;;;;;5032106;28;21241;-59
2021/03/07 19:51:39;;;;;;;0.20;0.20;;;;;;;;;;5042044;28;20181;-59
2021/03/07 19:54:05;;;;;;;4.80;0.83;;;;;;;;;;5030365;28;20667;-59
2021/03/07 19:56:32;;;;;;;0.77;0.77;;;;;;;;;;5030932;28;20299;-58
2021/03/07 19:58:58;;;;;;;0.00;0.00;;;;;;;;;;5026792;28;20491;-59
2021/03/07 20:01:25;;;;;;;3.40;1.40;;;;;;;;;;5019177;28;20285;-59
2021/03/07 20:03:52;;;;;;;2.13;0.73;;;;;;;;;;5027694;28;20185;-59
2021/03/07 20:06:18;;;;;;;0.63;0.20;;;;;;;;;;5031957;28;20944;-59
2021/03/07 20:08:45;;;;;;;4.30;2.40;;;;;;;;;;5028467;28;20211;-59
2021/03/07 20:11:12;;;;;;;3.37;1.23;;;;;;;;;;5028193;28;21187;-59
2021/03/07 20:13:39;;;;;;;1.03;0.33;;;;;;;;;;5035840;28;20634;-59
2021/03/07 20:16:07;;;;;;;0.87;0.53;;;;;;;;;;5034914;28;20613;-59
2021/03/07 20:18:34;;;;;;;0.60;0.40;;;;;;;;;;5034975;28;20180;-59
2021/03/07 20:21:00;;;;;;;0.00;0.00;;;;;;;;;;5031220;28;20184;-59
2021/03/07 20:23:27;;;;;;;0.07;0.07;;;;;;;;;;5027547;28;20190;-59
2021/03/07 20:25:54;;;;;;;0.50;0.27;;;;;;;;;;5021818;28;21187;-59
2021/03/07 20:28:20;;;;;;;8.83;1.03;;;;;;;;;;5025116;28;20186;-60
2021/03/07 20:30:48;;;;;;;1.33;1.07;;;;;;;;;;5017594;28;20313;-58
2021/03/07 20:33:17;;;;;;;3.83;0.23;;;;;;;;;;5025245;28;20276;-59
2021/03/07 20:35:44;;;;;;;0.30;0.30;;;;;;;;;;5027223;28;20242;-58
2021/03/07 20:38:10;;;;;;;0.00;0.00;;;;;;;;;;5029707;28;20246;-59
2021/03/07 20:40:38;;;;;;;4.77;0.20;;;;;;;;;;5026712;28;20295;-58
2021/03/07 20:43:06;;;;;;;4.03;1.40;;;;;;;;;;5032213;28;20186;-58
2021/03/07 20:45:32;;;;;;;0.07;0.07;;;;;;;;;;5028956;28;20189;-58
2021/03/07 20:48:00;;;;;;;0.77;0.00;;;;;;;;;;5026850;28;20565;-58
2021/03/07 20:50:27;;;;;;;0.10;0.07;;;;;;;;;;5035082;28;20182;-58
2021/03/07 20:52:53;;;;;;;0.93;0.47;;;;;;;;;;5031437;28;20378;-60
2021/03/07 20:55:20;;;;;;;3.53;3.23;;;;;;;;;;5035264;28;20607;-59
2021/03/07 20:57:47;;;;;;;0.57;0.40;;;;;;;;;;5035030;28;20173;-58
2021/03/07 21:00:16;;;;;;;0.43;0.13;;;;;;;;;;5034128;28;20778;-59
2021/03/07 21:02:42;;;;;;;2.23;0.90;;;;;;;;;;5019343;28;20180;-58
2021/03/07 21:05:09;;;;;;;4.13;0.43;;;;;;;;;;5029858;28;20184;-58
2021/03/07 21:07:36;;;;;;;0.70;0.70;;;;;;;;;;5033963;28;20208;-58
2021/03/07 21:10:04;;;;;;;0.33;0.13;;;;;;;;;;5033305;28;20174;-58
2021/03/07 21:12:30;;;;;;;2.20;0.53;;;;;;;;;;5035025;28;20172;-59
2021/03/07 21:14:57;;;;;;;0.00;0.00;;;;;;;;;;5027966;28;20176;-58
2021/03/07 21:17:24;;;;;;;0.57;0.47;;;;;;;;;;5033001;28;20603;-59
2021/03/07 21:19:51;;;;;;;1.90;0.10;;;;;;;;;;5032575;28;20179;-61
2021/03/07 21:22:17;;;;;;;1.90;0.50;;;;;;;;;;5030279;28;20172;-58
2021/03/07 21:24:44;;;;;;;3.90;1.10;;;;;;;;;;5032241;28;20866;-58
2021/03/07 21:27:11;;;;;;;3.50;0.33;;;;;;;;;;5057548;28;20457;-59